sensor_id;sensor_type;location;lat;lon;timestamp;P1;durP1;ratioP1;P2;durP2;ratioP2
24485;SDS011;13449;49.374;8.584;2023-03-01T00:01:15;10.43;;;5.47;;
24485;SDS011;13449;49.374;8.584;2023-03-01T00:03:44;11.15;;;5.80;;
24485;SDS011;13449;49.374;8.584;2023-03-01T00:06:11;17.73;;;6.35;;
24485;SDS011;13449;49.374;8.584;2023-03-01T00:08:38;13.05;;;6.03;;
24485;SDS011;13449;49.374;8.584;2023-03-01T00:13:36;17.65;;;6.65;;
24485;SDS011;13449;49.374;8.584;2023-03-01T00:16:07;15.43;;;6.53;;
24485;SDS011;13449;49.374;8.584;2023-03-01T00:18:35;14.82;;;6.28;;
24485;SDS011;13449;49.374;8.584;2023-03-01T00:21:02;9.85;;;5.03;;
24485;SDS011;13449;49.374;8.584;2023-03-01T00:23:29;13.73;;;6.40;;
24485;SDS011;13449;49.374;8.584;2023-03-01T00:25:57;16.00;;;6.88;;
24485;SDS011;13449;49.374;8.584;2023-03-01T00:28:24;13.52;;;6.50;;
24485;SDS011;13449;49.374;8.584;2023-03-01T00:30:50;15.75;;;5.82;;
24485;SDS011;13449;49.374;8.584;2023-03-01T00:33:17;17.33;;;7.03;;
24485;SDS011;13449;49.374;8.584;2023-03-01T00:35:44;11.48;;;6.25;;
24485;SDS011;13449;49.374;8.584;2023-03-01T00:38:13;18.88;;;6.55;;
24485;SDS011;13449;49.374;8.584;2023-03-01T00:40:39;18.35;;;6.72;;
24485;SDS011;13449;49.374;8.584;2023-03-01T00:43:06;13.48;;;6.55;;
24485;SDS011;13449;49.374;8.584;2023-03-01T00:45:32;14.10;;;6.38;;
24485;SDS011;13449;49.374;8.584;2023-03-01T00:47:59;14.25;;;6.20;;
24485;SDS011;13449;49.374;8.584;2023-03-01T00:50:25;15.70;;;6.57;;
24485;SDS011;13449;49.374;8.584;2023-03-01T00:52:55;13.00;;;6.18;;
24485;SDS011;13449;49.374;8.584;2023-03-01T00:55:24;13.55;;;6.68;;
24485;SDS011;13449;49.374;8.584;2023-03-01T00:57:53;12.38;;;6.15;;
24485;SDS011;13449;49.374;8.584;2023-03-01T01:00:20;18.65;;;6.15;;
24485;SDS011;13449;49.374;8.584;2023-03-01T01:02:46;19.40;;;6.68;;
24485;SDS011;13449;49.374;8.584;2023-03-01T01:05:13;13.07;;;6.55;;
24485;SDS011;13449;49.374;8.584;2023-03-01T01:07:47;16.80;;;7.25;;
24485;SDS011;13449;49.374;8.584;2023-03-01T01:10:14;13.73;;;5.78;;
24485;SDS011;13449;49.374;8.584;2023-03-01T01:12:44;16.67;;;7.13;;
24485;SDS011;13449;49.374;8.584;2023-03-01T01:15:12;14.25;;;6.50;;
24485;SDS011;13449;49.374;8.584;2023-03-01T01:17:42;14.70;;;6.97;;
24485;SDS011;13449;49.374;8.584;2023-03-01T01:20:09;11.55;;;6.00;;
24485;SDS011;13449;49.374;8.584;2023-03-01T01:22:36;12.73;;;6.53;;
24485;SDS011;13449;49.374;8.584;2023-03-01T01:25:02;13.82;;;5.90;;
24485;SDS011;13449;49.374;8.584;2023-03-01T01:27:29;15.50;;;6.68;;
24485;SDS011;13449;49.374;8.584;2023-03-01T01:29:56;15.80;;;6.82;;
24485;SDS011;13449;49.374;8.584;2023-03-01T01:32:22;15.48;;;6.93;;
24485;SDS011;13449;49.374;8.584;2023-03-01T01:34:52;19.90;;;7.38;;
24485;SDS011;13449;49.374;8.584;2023-03-01T01:37:18;17.77;;;7.60;;
24485;SDS011;13449;49.374;8.584;2023-03-01T01:39:45;17.90;;;7.50;;
24485;SDS011;13449;49.374;8.584;2023-03-01T01:42:15;21.58;;;7.07;;
24485;SDS011;13449;49.374;8.584;2023-03-01T01:44:46;14.25;;;7.53;;
24485;SDS011;13449;49.374;8.584;2023-03-01T01:47:18;18.98;;;6.97;;
24485;SDS011;13449;49.374;8.584;2023-03-01T01:49:53;15.88;;;6.45;;
24485;SDS011;13449;49.374;8.584;2023-03-01T01:52:36;19.75;;;6.68;;
24485;SDS011;13449;49.374;8.584;2023-03-01T01:55:11;14.48;;;6.25;;
24485;SDS011;13449;49.374;8.584;2023-03-01T02:00:21;15.60;;;6.07;;
24485;SDS011;13449;49.374;8.584;2023-03-01T02:02:51;18.08;;;6.60;;
24485;SDS011;13449;49.374;8.584;2023-03-01T02:08:14;17.02;;;6.35;;
24485;SDS011;13449;49.374;8.584;2023-03-01T02:13:10;15.75;;;6.07;;
24485;SDS011;13449;49.374;8.584;2023-03-01T02:15:38;20.50;;;7.20;;
24485;SDS011;13449;49.374;8.584;2023-03-01T02:18:06;15.95;;;7.07;;
24485;SDS011;13449;49.374;8.584;2023-03-01T02:20:51;18.15;;;7.28;;
24485;SDS011;13449;49.374;8.584;2023-03-01T02:23:22;14.65;;;6.22;;
24485;SDS011;13449;49.374;8.584;2023-03-01T02:26:09;18.08;;;8.10;;
24485;SDS011;13449;49.374;8.584;2023-03-01T02:28:57;20.95;;;8.15;;
24485;SDS011;13449;49.374;8.584;2023-03-01T02:31:24;20.98;;;8.23;;
24485;SDS011;13449;49.374;8.584;2023-03-01T02:34:13;15.27;;;6.93;;
24485;SDS011;13449;49.374;8.584;2023-03-01T02:36:47;13.90;;;6.32;;
24485;SDS011;13449;49.374;8.584;2023-03-01T02:39:18;11.02;;;5.90;;
24485;SDS011;13449;49.374;8.584;2023-03-01T02:41:50;21.15;;;7.75;;
24485;SDS011;13449;49.374;8.584;2023-03-01T02:44:19;14.85;;;7.32;;
24485;SDS011;13449;49.374;8.584;2023-03-01T02:46:50;14.98;;;7.15;;
24485;SDS011;13449;49.374;8.584;2023-03-01T02:49:30;14.55;;;7.03;;
24485;SDS011;13449;49.374;8.584;2023-03-01T02:55:08;16.42;;;7.32;;
24485;SDS011;13449;49.374;8.584;2023-03-01T02:57:38;16.48;;;7.03;;
24485;SDS011;13449;49.374;8.584;2023-03-01T03:00:15;20.88;;;9.02;;
24485;SDS011;13449;49.374;8.584;2023-03-01T03:02:48;18.42;;;6.95;;
24485;SDS011;13449;49.374;8.584;2023-03-01T03:05:24;16.30;;;7.05;;
24485;SDS011;13449;49.374;8.584;2023-03-01T03:07:55;20.38;;;8.18;;
24485;SDS011;13449;49.374;8.584;2023-03-01T03:10:25;20.17;;;6.88;;
24485;SDS011;13449;49.374;8.584;2023-03-01T03:12:55;19.90;;;7.30;;
24485;SDS011;13449;49.374;8.584;2023-03-01T03:15:30;16.67;;;7.82;;
24485;SDS011;13449;49.374;8.584;2023-03-01T03:17:57;14.32;;;6.60;;
24485;SDS011;13449;49.374;8.584;2023-03-01T03:20:27;14.77;;;7.05;;
24485;SDS011;13449;49.374;8.584;2023-03-01T03:22:55;14.90;;;6.93;;
24485;SDS011;13449;49.374;8.584;2023-03-01T03:25:25;20.70;;;8.35;;
24485;SDS011;13449;49.374;8.584;2023-03-01T03:27:53;14.75;;;6.80;;
24485;SDS011;13449;49.374;8.584;2023-03-01T03:30:31;18.98;;;8.25;;
24485;SDS011;13449;49.374;8.584;2023-03-01T03:32:58;28.50;;;7.82;;
24485;SDS011;13449;49.374;8.584;2023-03-01T03:35:30;18.33;;;8.93;;
24485;SDS011;13449;49.374;8.584;2023-03-01T03:37:59;18.98;;;9.68;;
24485;SDS011;13449;49.374;8.584;2023-03-01T03:40:36;25.92;;;10.43;;
24485;SDS011;13449;49.374;8.584;2023-03-01T03:43:06;19.88;;;9.02;;
24485;SDS011;13449;49.374;8.584;2023-03-01T03:45:35;21.80;;;8.77;;
24485;SDS011;13449;49.374;8.584;2023-03-01T03:48:05;19.50;;;8.68;;
24485;SDS011;13449;49.374;8.584;2023-03-01T03:50:33;20.05;;;9.77;;
24485;SDS011;13449;49.374;8.584;2023-03-01T03:53:00;18.52;;;8.32;;
24485;SDS011;13449;49.374;8.584;2023-03-01T03:55:28;18.17;;;8.23;;
24485;SDS011;13449;49.374;8.584;2023-03-01T03:57:57;17.08;;;8.30;;
24485;SDS011;13449;49.374;8.584;2023-03-01T04:00:33;18.40;;;8.15;;
24485;SDS011;13449;49.374;8.584;2023-03-01T04:03:02;17.85;;;7.88;;
24485;SDS011;13449;49.374;8.584;2023-03-01T04:05:29;23.55;;;7.85;;
24485;SDS011;13449;49.374;8.584;2023-03-01T04:07:57;17.20;;;7.57;;
24485;SDS011;13449;49.374;8.584;2023-03-01T04:10:32;20.70;;;8.05;;
24485;SDS011;13449;49.374;8.584;2023-03-01T04:13:14;21.13;;;8.43;;
24485;SDS011;13449;49.374;8.584;2023-03-01T04:15:43;21.25;;;8.13;;
24485;SDS011;13449;49.374;8.584;2023-03-01T04:18:13;19.65;;;7.20;;
24485;SDS011;13449;49.374;8.584;2023-03-01T04:20:41;17.17;;;7.78;;
24485;SDS011;13449;49.374;8.584;2023-03-01T04:23:13;22.42;;;7.93;;
24485;SDS011;13449;49.374;8.584;2023-03-01T04:25:53;22.27;;;10.15;;
24485;SDS011;13449;49.374;8.584;2023-03-01T04:28:24;18.10;;;8.68;;
24485;SDS011;13449;49.374;8.584;2023-03-01T04:30:51;12.20;;;6.82;;
24485;SDS011;13449;49.374;8.584;2023-03-01T04:33:18;15.93;;;7.35;;
24485;SDS011;13449;49.374;8.584;2023-03-01T04:35:45;26.55;;;9.68;;
24485;SDS011;13449;49.374;8.584;2023-03-01T04:38:16;19.05;;;7.47;;
24485;SDS011;13449;49.374;8.584;2023-03-01T04:40:43;20.33;;;9.35;;
24485;SDS011;13449;49.374;8.584;2023-03-01T04:43:10;19.63;;;8.57;;
24485;SDS011;13449;49.374;8.584;2023-03-01T04:45:40;22.08;;;8.35;;
24485;SDS011;13449;49.374;8.584;2023-03-01T04:48:07;22.33;;;8.20;;
24485;SDS011;13449;49.374;8.584;2023-03-01T04:50:36;21.25;;;8.52;;
24485;SDS011;13449;49.374;8.584;2023-03-01T04:53:02;16.13;;;7.97;;
24485;SDS011;13449;49.374;8.584;2023-03-01T04:55:29;16.92;;;8.35;;
24485;SDS011;13449;49.374;8.584;2023-03-01T04:57:58;16.33;;;7.65;;
24485;SDS011;13449;49.374;8.584;2023-03-01T05:00:24;16.42;;;8.07;;
24485;SDS011;13449;49.374;8.584;2023-03-01T05:02:55;24.67;;;9.13;;
24485;SDS011;13449;49.374;8.584;2023-03-01T05:05:25;22.13;;;8.85;;
24485;SDS011;13449;49.374;8.584;2023-03-01T05:07:54;21.15;;;8.95;;
24485;SDS011;13449;49.374;8.584;2023-03-01T05:10:24;22.75;;;8.43;;
24485;SDS011;13449;49.374;8.584;2023-03-01T05:12:52;21.10;;;8.63;;
24485;SDS011;13449;49.374;8.584;2023-03-01T05:15:19;19.25;;;8.50;;
24485;SDS011;13449;49.374;8.584;2023-03-01T05:17:54;20.40;;;9.63;;
24485;SDS011;13449;49.374;8.584;2023-03-01T05:20:24;20.50;;;8.25;;
24485;SDS011;13449;49.374;8.584;2023-03-01T05:22:55;21.88;;;8.32;;
24485;SDS011;13449;49.374;8.584;2023-03-01T05:25:24;23.17;;;8.13;;
24485;SDS011;13449;49.374;8.584;2023-03-01T05:28:00;22.40;;;8.57;;
24485;SDS011;13449;49.374;8.584;2023-03-01T05:30:31;25.45;;;9.23;;
24485;SDS011;13449;49.374;8.584;2023-03-01T05:32:58;19.65;;;9.63;;
24485;SDS011;13449;49.374;8.584;2023-03-01T05:35:25;23.50;;;10.15;;
24485;SDS011;13449;49.374;8.584;2023-03-01T05:37:52;18.88;;;8.30;;
24485;SDS011;13449;49.374;8.584;2023-03-01T05:40:22;20.00;;;8.85;;
24485;SDS011;13449;49.374;8.584;2023-03-01T05:42:52;22.42;;;9.00;;
24485;SDS011;13449;49.374;8.584;2023-03-01T05:45:20;23.42;;;9.73;;
24485;SDS011;13449;49.374;8.584;2023-03-01T05:47:48;19.13;;;8.82;;
24485;SDS011;13449;49.374;8.584;2023-03-01T05:50:17;19.23;;;7.63;;
24485;SDS011;13449;49.374;8.584;2023-03-01T05:52:49;23.50;;;9.32;;
24485;SDS011;13449;49.374;8.584;2023-03-01T05:55:18;26.17;;;10.43;;
24485;SDS011;13449;49.374;8.584;2023-03-01T05:57:46;18.83;;;8.65;;
24485;SDS011;13449;49.374;8.584;2023-03-01T06:00:14;21.13;;;9.52;;
24485;SDS011;13449;49.374;8.584;2023-03-01T06:02:42;24.45;;;9.15;;
24485;SDS011;13449;49.374;8.584;2023-03-01T06:05:09;18.85;;;8.25;;
24485;SDS011;13449;49.374;8.584;2023-03-01T06:07:38;28.88;;;9.70;;
24485;SDS011;13449;49.374;8.584;2023-03-01T06:10:05;24.90;;;9.50;;
24485;SDS011;13449;49.374;8.584;2023-03-01T06:12:36;25.23;;;9.23;;
24485;SDS011;13449;49.374;8.584;2023-03-01T06:15:06;30.75;;;10.40;;
24485;SDS011;13449;49.374;8.584;2023-03-01T06:17:38;19.77;;;9.77;;
24485;SDS011;13449;49.374;8.584;2023-03-01T06:20:08;23.80;;;9.68;;
24485;SDS011;13449;49.374;8.584;2023-03-01T06:22:43;34.20;;;9.88;;
24485;SDS011;13449;49.374;8.584;2023-03-01T06:25:11;19.55;;;8.98;;
24485;SDS011;13449;49.374;8.584;2023-03-01T06:27:38;25.98;;;10.40;;
24485;SDS011;13449;49.374;8.584;2023-03-01T06:30:06;18.67;;;8.35;;
24485;SDS011;13449;49.374;8.584;2023-03-01T06:32:40;22.73;;;8.80;;
24485;SDS011;13449;49.374;8.584;2023-03-01T06:35:09;27.48;;;10.05;;
24485;SDS011;13449;49.374;8.584;2023-03-01T06:37:37;21.13;;;9.13;;
24485;SDS011;13449;49.374;8.584;2023-03-01T06:40:04;29.83;;;10.35;;
24485;SDS011;13449;49.374;8.584;2023-03-01T06:42:35;27.30;;;9.75;;
24485;SDS011;13449;49.374;8.584;2023-03-01T06:45:02;21.38;;;9.13;;
24485;SDS011;13449;49.374;8.584;2023-03-01T06:47:30;34.00;;;10.35;;
24485;SDS011;13449;49.374;8.584;2023-03-01T06:49:57;25.05;;;9.90;;
24485;SDS011;13449;49.374;8.584;2023-03-01T06:52:23;17.35;;;8.82;;
24485;SDS011;13449;49.374;8.584;2023-03-01T06:54:50;19.98;;;8.10;;
24485;SDS011;13449;49.374;8.584;2023-03-01T06:57:16;22.73;;;9.40;;
24485;SDS011;13449;49.374;8.584;2023-03-01T06:59:46;17.42;;;7.82;;
24485;SDS011;13449;49.374;8.584;2023-03-01T07:02:13;24.70;;;10.05;;
24485;SDS011;13449;49.374;8.584;2023-03-01T07:04:41;29.25;;;10.68;;
24485;SDS011;13449;49.374;8.584;2023-03-01T07:07:11;22.92;;;10.25;;
24485;SDS011;13449;49.374;8.584;2023-03-01T07:09:37;22.02;;;9.02;;
24485;SDS011;13449;49.374;8.584;2023-03-01T07:12:04;20.38;;;9.25;;
24485;SDS011;13449;49.374;8.584;2023-03-01T07:14:31;21.85;;;9.07;;
24485;SDS011;13449;49.374;8.584;2023-03-01T07:16:57;20.83;;;9.23;;
24485;SDS011;13449;49.374;8.584;2023-03-01T07:19:26;23.73;;;9.43;;
24485;SDS011;13449;49.374;8.584;2023-03-01T07:21:55;25.88;;;11.75;;
24485;SDS011;13449;49.374;8.584;2023-03-01T07:24:22;20.52;;;9.07;;
24485;SDS011;13449;49.374;8.584;2023-03-01T07:26:49;24.52;;;10.13;;
24485;SDS011;13449;49.374;8.584;2023-03-01T07:29:16;25.85;;;10.38;;
24485;SDS011;13449;49.374;8.584;2023-03-01T07:31:43;23.55;;;10.23;;
24485;SDS011;13449;49.374;8.584;2023-03-01T07:34:12;31.48;;;10.25;;
24485;SDS011;13449;49.374;8.584;2023-03-01T07:36:38;25.77;;;10.20;;
24485;SDS011;13449;49.374;8.584;2023-03-01T07:39:09;20.35;;;9.73;;
24485;SDS011;13449;49.374;8.584;2023-03-01T07:41:36;20.35;;;10.13;;
24485;SDS011;13449;49.374;8.584;2023-03-01T07:44:02;23.45;;;10.13;;
24485;SDS011;13449;49.374;8.584;2023-03-01T07:46:32;23.15;;;9.23;;
24485;SDS011;13449;49.374;8.584;2023-03-01T07:49:01;21.08;;;9.68;;
24485;SDS011;13449;49.374;8.584;2023-03-01T07:51:27;26.52;;;10.85;;
24485;SDS011;13449;49.374;8.584;2023-03-01T07:53:54;24.65;;;10.10;;
24485;SDS011;13449;49.374;8.584;2023-03-01T07:56:20;22.52;;;10.48;;
24485;SDS011;13449;49.374;8.584;2023-03-01T07:58:48;22.95;;;10.45;;
24485;SDS011;13449;49.374;8.584;2023-03-01T08:01:17;18.55;;;9.45;;
24485;SDS011;13449;49.374;8.584;2023-03-01T08:03:45;18.55;;;8.48;;
24485;SDS011;13449;49.374;8.584;2023-03-01T08:06:12;17.50;;;9.07;;
24485;SDS011;13449;49.374;8.584;2023-03-01T08:08:41;21.15;;;10.32;;
24485;SDS011;13449;49.374;8.584;2023-03-01T08:11:10;27.80;;;10.05;;
24485;SDS011;13449;49.374;8.584;2023-03-01T08:13:37;21.33;;;9.77;;
24485;SDS011;13449;49.374;8.584;2023-03-01T08:16:05;24.25;;;9.90;;
24485;SDS011;13449;49.374;8.584;2023-03-01T08:18:34;29.00;;;10.88;;
24485;SDS011;13449;49.374;8.584;2023-03-01T08:21:04;23.67;;;10.75;;
24485;SDS011;13449;49.374;8.584;2023-03-01T08:23:39;23.45;;;10.05;;
24485;SDS011;13449;49.374;8.584;2023-03-01T08:26:14;23.55;;;10.02;;
24485;SDS011;13449;49.374;8.584;2023-03-01T08:28:43;21.73;;;9.48;;
24485;SDS011;13449;49.374;8.584;2023-03-01T08:31:24;28.80;;;10.20;;
24485;SDS011;13449;49.374;8.584;2023-03-01T08:33:54;20.17;;;8.98;;
24485;SDS011;13449;49.374;8.584;2023-03-01T08:36:29;24.40;;;9.23;;
24485;SDS011;13449;49.374;8.584;2023-03-01T08:38:58;21.40;;;9.20;;
24485;SDS011;13449;49.374;8.584;2023-03-01T08:41:25;21.88;;;9.52;;
24485;SDS011;13449;49.374;8.584;2023-03-01T08:43:52;22.67;;;9.82;;
24485;SDS011;13449;49.374;8.584;2023-03-01T08:46:28;18.98;;;8.95;;
24485;SDS011;13449;49.374;8.584;2023-03-01T08:48:57;21.33;;;10.13;;
24485;SDS011;13449;49.374;8.584;2023-03-01T08:51:23;30.88;;;10.95;;
24485;SDS011;13449;49.374;8.584;2023-03-01T08:53:55;29.42;;;11.13;;
24485;SDS011;13449;49.374;8.584;2023-03-01T08:56:21;20.15;;;9.02;;
24485;SDS011;13449;49.374;8.584;2023-03-01T08:58:48;21.45;;;9.18;;
24485;SDS011;13449;49.374;8.584;2023-03-01T09:01:18;19.55;;;9.27;;
24485;SDS011;13449;49.374;8.584;2023-03-01T09:03:45;20.55;;;9.30;;
24485;SDS011;13449;49.374;8.584;2023-03-01T09:06:14;23.05;;;9.90;;
24485;SDS011;13449;49.374;8.584;2023-03-01T09:08:42;25.27;;;11.63;;
24485;SDS011;13449;49.374;8.584;2023-03-01T09:11:12;21.05;;;9.55;;
24485;SDS011;13449;49.374;8.584;2023-03-01T09:13:42;21.75;;;9.40;;
24485;SDS011;13449;49.374;8.584;2023-03-01T09:16:10;23.70;;;10.68;;
24485;SDS011;13449;49.374;8.584;2023-03-01T09:18:37;24.35;;;10.82;;
24485;SDS011;13449;49.374;8.584;2023-03-01T09:21:14;21.92;;;9.85;;
24485;SDS011;13449;49.374;8.584;2023-03-01T09:23:45;23.75;;;9.98;;
24485;SDS011;13449;49.374;8.584;2023-03-01T09:26:16;23.35;;;9.80;;
24485;SDS011;13449;49.374;8.584;2023-03-01T09:28:48;24.85;;;10.27;;
24485;SDS011;13449;49.374;8.584;2023-03-01T09:31:18;19.13;;;9.52;;
24485;SDS011;13449;49.374;8.584;2023-03-01T09:33:46;24.65;;;9.85;;
24485;SDS011;13449;49.374;8.584;2023-03-01T09:36:15;19.98;;;9.73;;
24485;SDS011;13449;49.374;8.584;2023-03-01T09:38:44;23.42;;;10.38;;
24485;SDS011;13449;49.374;8.584;2023-03-01T09:46:13;24.58;;;10.10;;
24485;SDS011;13449;49.374;8.584;2023-03-01T09:48:54;20.10;;;9.68;;
24485;SDS011;13449;49.374;8.584;2023-03-01T09:51:30;21.95;;;10.27;;
24485;SDS011;13449;49.374;8.584;2023-03-01T09:54:01;25.90;;;11.65;;
24485;SDS011;13449;49.374;8.584;2023-03-01T09:56:32;21.25;;;10.50;;
24485;SDS011;13449;49.374;8.584;2023-03-01T09:59:15;21.65;;;10.55;;
24485;SDS011;13449;49.374;8.584;2023-03-01T10:09:58;22.67;;;10.95;;
24485;SDS011;13449;49.374;8.584;2023-03-01T10:12:27;18.38;;;9.45;;
24485;SDS011;13449;49.374;8.584;2023-03-01T10:15:08;22.60;;;9.18;;
24485;SDS011;13449;49.374;8.584;2023-03-01T10:17:47;23.25;;;11.35;;
24485;SDS011;13449;49.374;8.584;2023-03-01T10:20:19;21.98;;;10.27;;
24485;SDS011;13449;49.374;8.584;2023-03-01T10:22:56;23.60;;;11.18;;
24485;SDS011;13449;49.374;8.584;2023-03-01T10:28:25;19.00;;;9.70;;
24485;SDS011;13449;49.374;8.584;2023-03-01T10:30:57;22.90;;;10.82;;
24485;SDS011;13449;49.374;8.584;2023-03-01T10:36:03;20.98;;;10.38;;
24485;SDS011;13449;49.374;8.584;2023-03-01T10:38:31;34.67;;;10.50;;
24485;SDS011;13449;49.374;8.584;2023-03-01T10:41:20;20.55;;;10.57;;
24485;SDS011;13449;49.374;8.584;2023-03-01T10:43:50;20.00;;;10.00;;
24485;SDS011;13449;49.374;8.584;2023-03-01T10:46:30;20.17;;;9.65;;
24485;SDS011;13449;49.374;8.584;2023-03-01T10:51:33;35.50;;;10.73;;
24485;SDS011;13449;49.374;8.584;2023-03-01T10:54:09;24.73;;;10.95;;
24485;SDS011;13449;49.374;8.584;2023-03-01T10:56:50;21.88;;;9.88;;
24485;SDS011;13449;49.374;8.584;2023-03-01T10:59:30;19.83;;;9.50;;
24485;SDS011;13449;49.374;8.584;2023-03-01T11:02:18;23.83;;;10.52;;
24485;SDS011;13449;49.374;8.584;2023-03-01T11:07:57;22.45;;;9.98;;
24485;SDS011;13449;49.374;8.584;2023-03-01T11:10:26;22.00;;;9.93;;
24485;SDS011;13449;49.374;8.584;2023-03-01T11:16:03;20.40;;;9.13;;
24485;SDS011;13449;49.374;8.584;2023-03-01T11:18:33;20.35;;;9.93;;
24485;SDS011;13449;49.374;8.584;2023-03-01T11:21:15;23.45;;;11.00;;
24485;SDS011;13449;49.374;8.584;2023-03-01T11:23:44;16.52;;;9.32;;
24485;SDS011;13449;49.374;8.584;2023-03-01T11:26:12;25.23;;;11.27;;
24485;SDS011;13449;49.374;8.584;2023-03-01T11:28:41;18.95;;;10.05;;
24485;SDS011;13449;49.374;8.584;2023-03-01T11:31:12;24.83;;;10.83;;
24485;SDS011;13449;49.374;8.584;2023-03-01T11:33:56;26.60;;;10.45;;
24485;SDS011;13449;49.374;8.584;2023-03-01T11:36:35;22.25;;;11.20;;
24485;SDS011;13449;49.374;8.584;2023-03-01T11:42:02;21.23;;;10.23;;
24485;SDS011;13449;49.374;8.584;2023-03-01T11:44:44;24.15;;;10.30;;
24485;SDS011;13449;49.374;8.584;2023-03-01T11:50:01;21.67;;;10.30;;
24485;SDS011;13449;49.374;8.584;2023-03-01T11:58:23;17.73;;;9.93;;
24485;SDS011;13449;49.374;8.584;2023-03-01T12:04:05;22.75;;;10.20;;
24485;SDS011;13449;49.374;8.584;2023-03-01T12:09:27;19.13;;;9.82;;
24485;SDS011;13449;49.374;8.584;2023-03-01T12:17:57;23.75;;;10.02;;
24485;SDS011;13449;49.374;8.584;2023-03-01T12:26:33;25.05;;;9.30;;
24485;SDS011;13449;49.374;8.584;2023-03-01T12:31:52;16.92;;;9.02;;
24485;SDS011;13449;49.374;8.584;2023-03-01T12:35:09;20.35;;;10.02;;
24485;SDS011;13449;49.374;8.584;2023-03-01T12:44:00;15.80;;;8.20;;
24485;SDS011;13449;49.374;8.584;2023-03-01T12:46:30;19.30;;;9.27;;
24485;SDS011;13449;49.374;8.584;2023-03-01T12:49:17;17.67;;;8.50;;
24485;SDS011;13449;49.374;8.584;2023-03-01T12:51:51;17.10;;;7.50;;
24485;SDS011;13449;49.374;8.584;2023-03-01T12:54:28;22.65;;;8.63;;
24485;SDS011;13449;49.374;8.584;2023-03-01T12:56:58;16.95;;;7.15;;
24485;SDS011;13449;49.374;8.584;2023-03-01T12:59:37;17.40;;;8.65;;
24485;SDS011;13449;49.374;8.584;2023-03-01T13:02:30;21.70;;;8.60;;
24485;SDS011;13449;49.374;8.584;2023-03-01T13:10:56;19.45;;;9.48;;
24485;SDS011;13449;49.374;8.584;2023-03-01T13:13:27;20.80;;;9.00;;
24485;SDS011;13449;49.374;8.584;2023-03-01T13:15:54;24.95;;;9.48;;
24485;SDS011;13449;49.374;8.584;2023-03-01T13:20:52;17.30;;;8.60;;
24485;SDS011;13449;49.374;8.584;2023-03-01T13:31:03;16.88;;;8.13;;
24485;SDS011;13449;49.374;8.584;2023-03-01T13:35:59;17.20;;;7.90;;
24485;SDS011;13449;49.374;8.584;2023-03-01T13:41:49;15.98;;;8.13;;
24485;SDS011;13449;49.374;8.584;2023-03-01T13:44:20;17.77;;;8.48;;
24485;SDS011;13449;49.374;8.584;2023-03-01T13:49:22;16.42;;;8.63;;
24485;SDS011;13449;49.374;8.584;2023-03-01T13:52:00;23.27;;;7.80;;
24485;SDS011;13449;49.374;8.584;2023-03-01T13:54:32;13.63;;;7.15;;
24485;SDS011;13449;49.374;8.584;2023-03-01T13:56:59;13.70;;;6.37;;
24485;SDS011;13449;49.374;8.584;2023-03-01T13:59:29;12.65;;;6.55;;
24485;SDS011;13449;49.374;8.584;2023-03-01T14:01:57;17.23;;;8.00;;
24485;SDS011;13449;49.374;8.584;2023-03-01T14:04:27;13.20;;;6.68;;
24485;SDS011;13449;49.374;8.584;2023-03-01T14:07:10;18.05;;;7.60;;
24485;SDS011;13449;49.374;8.584;2023-03-01T14:09:48;14.63;;;6.88;;
24485;SDS011;13449;49.374;8.584;2023-03-01T14:14:59;11.07;;;6.72;;
24485;SDS011;13449;49.374;8.584;2023-03-01T14:17:44;16.05;;;7.22;;
24485;SDS011;13449;49.374;8.584;2023-03-01T14:22:45;15.10;;;6.75;;
24485;SDS011;13449;49.374;8.584;2023-03-01T14:27:52;14.23;;;7.75;;
24485;SDS011;13449;49.374;8.584;2023-03-01T14:30:36;21.27;;;7.20;;
24485;SDS011;13449;49.374;8.584;2023-03-01T14:33:06;13.25;;;6.90;;
24485;SDS011;13449;49.374;8.584;2023-03-01T14:36:01;14.45;;;6.55;;
24485;SDS011;13449;49.374;8.584;2023-03-01T14:38:31;11.48;;;6.80;;
24485;SDS011;13449;49.374;8.584;2023-03-01T14:41:02;10.52;;;5.82;;
24485;SDS011;13449;49.374;8.584;2023-03-01T14:43:35;11.70;;;6.50;;
24485;SDS011;13449;49.374;8.584;2023-03-01T14:46:03;15.68;;;7.57;;
24485;SDS011;13449;49.374;8.584;2023-03-01T14:48:30;15.02;;;7.03;;
24485;SDS011;13449;49.374;8.584;2023-03-01T14:50:58;19.40;;;7.30;;
24485;SDS011;13449;49.374;8.584;2023-03-01T14:53:26;11.10;;;6.43;;
24485;SDS011;13449;49.374;8.584;2023-03-01T14:56:00;15.80;;;7.53;;
24485;SDS011;13449;49.374;8.584;2023-03-01T14:58:33;18.90;;;6.40;;
24485;SDS011;13449;49.374;8.584;2023-03-01T15:01:03;10.97;;;5.53;;
24485;SDS011;13449;49.374;8.584;2023-03-01T15:03:43;14.32;;;6.65;;
24485;SDS011;13449;49.374;8.584;2023-03-01T15:06:15;15.63;;;7.28;;
24485;SDS011;13449;49.374;8.584;2023-03-01T15:08:48;16.55;;;7.57;;
24485;SDS011;13449;49.374;8.584;2023-03-01T15:11:24;15.80;;;7.00;;
24485;SDS011;13449;49.374;8.584;2023-03-01T15:13:55;12.88;;;6.22;;
24485;SDS011;13449;49.374;8.584;2023-03-01T15:19:03;15.23;;;7.15;;
24485;SDS011;13449;49.374;8.584;2023-03-01T15:21:32;12.93;;;6.80;;
24485;SDS011;13449;49.374;8.584;2023-03-01T15:26:49;15.50;;;6.78;;
24485;SDS011;13449;49.374;8.584;2023-03-01T15:29:17;11.83;;;6.30;;
24485;SDS011;13449;49.374;8.584;2023-03-01T15:34:23;10.57;;;6.03;;
24485;SDS011;13449;49.374;8.584;2023-03-01T15:39:34;15.10;;;7.22;;
24485;SDS011;13449;49.374;8.584;2023-03-01T15:42:10;16.20;;;7.00;;
24485;SDS011;13449;49.374;8.584;2023-03-01T15:47:47;12.95;;;6.95;;
24485;SDS011;13449;49.374;8.584;2023-03-01T15:50:20;12.32;;;6.38;;
24485;SDS011;13449;49.374;8.584;2023-03-01T15:52:49;15.00;;;6.40;;
24485;SDS011;13449;49.374;8.584;2023-03-01T15:57:44;12.60;;;6.57;;
24485;SDS011;13449;49.374;8.584;2023-03-01T16:00:11;11.48;;;6.13;;
24485;SDS011;13449;49.374;8.584;2023-03-01T16:02:40;18.20;;;6.78;;
24485;SDS011;13449;49.374;8.584;2023-03-01T16:07:49;15.18;;;7.57;;
24485;SDS011;13449;49.374;8.584;2023-03-01T16:10:17;20.08;;;7.57;;
24485;SDS011;13449;49.374;8.584;2023-03-01T16:12:46;14.40;;;6.93;;
24485;SDS011;13449;49.374;8.584;2023-03-01T16:15:21;18.27;;;6.80;;
24485;SDS011;13449;49.374;8.584;2023-03-01T16:20:19;18.40;;;6.20;;
24485;SDS011;13449;49.374;8.584;2023-03-01T16:22:54;13.57;;;6.60;;
24485;SDS011;13449;49.374;8.584;2023-03-01T16:25:21;11.55;;;6.20;;
24485;SDS011;13449;49.374;8.584;2023-03-01T16:27:48;11.43;;;6.63;;
24485;SDS011;13449;49.374;8.584;2023-03-01T16:30:17;12.13;;;6.57;;
24485;SDS011;13449;49.374;8.584;2023-03-01T16:32:47;10.45;;;6.25;;
24485;SDS011;13449;49.374;8.584;2023-03-01T16:35:16;24.08;;;7.68;;
24485;SDS011;13449;49.374;8.584;2023-03-01T16:37:45;13.43;;;6.93;;
24485;SDS011;13449;49.374;8.584;2023-03-01T16:40:19;17.95;;;7.22;;
24485;SDS011;13449;49.374;8.584;2023-03-01T16:42:48;15.90;;;6.95;;
24485;SDS011;13449;49.374;8.584;2023-03-01T16:45:16;16.83;;;6.72;;
24485;SDS011;13449;49.374;8.584;2023-03-01T16:47:50;15.50;;;6.35;;
24485;SDS011;13449;49.374;8.584;2023-03-01T16:50:21;24.52;;;7.13;;
24485;SDS011;13449;49.374;8.584;2023-03-01T16:52:47;12.80;;;6.18;;
24485;SDS011;13449;49.374;8.584;2023-03-01T16:55:14;20.52;;;7.93;;
24485;SDS011;13449;49.374;8.584;2023-03-01T16:57:41;14.10;;;6.47;;
24485;SDS011;13449;49.374;8.584;2023-03-01T17:00:08;13.80;;;6.95;;
24485;SDS011;13449;49.374;8.584;2023-03-01T17:02:40;11.15;;;6.18;;
24485;SDS011;13449;49.374;8.584;2023-03-01T17:05:07;17.42;;;7.38;;